Time;durP1;ratioP1;P1;durP2;ratioP2;P2;SDS_P1;SDS_P2;PMS_P1;PMS_P2;Temp;Humidity;BMP_temperature;BMP_pressure;BME280_temperature;BME280_humidity;BME280_pressure;Samples;Min_cycle;Max_cycle;Signal;HPM_P1;HPM_P2
2021/07/10 00:00:35;;;;;;;19.77;18.17;;;20.20;99.90;;;;;;4994553;28;20183;-61
2021/07/10 00:03:01;;;;;;;21.07;19.10;;;20.20;99.90;;;;;;4993790;28;20451;-61
2021/07/10 00:05:27;;;;;;;21.20;19.20;;;20.10;99.90;;;;;;4994410;28;20534;-61
2021/07/10 00:07:52;;;;;;;20.77;18.93;;;20.10;99.90;;;;;;4993009;28;20466;-61
2021/07/10 00:10:19;;;;;;;20.93;18.70;;;20.10;99.90;;;;;;4994295;28;20223;-61
2021/07/10 00:12:45;;;;;;;20.03;18.47;;;20.10;99.90;;;;;;4993702;28;20256;-61
2021/07/10 00:15:13;;;;;;;20.63;18.60;;;20.10;99.90;;;;;;4994184;28;20490;-61
2021/07/10 00:17:39;;;;;;;19.97;18.17;;;20.10;99.90;;;;;;4994091;28;20482;-61
2021/07/10 00:20:07;;;;;;;20.33;18.17;;;20.10;99.90;;;;;;4993234;28;20502;-61
2021/07/10 00:22:33;;;;;;;18.37;16.87;;;20.10;99.90;;;;;;4993681;28;20434;-61
2021/07/10 00:25:00;;;;;;;18.93;17.13;;;20.00;99.90;;;;;;4993534;28;20415;-61
2021/07/10 00:27:26;;;;;;;19.70;18.00;;;20.00;99.90;;;;;;4994216;28;20551;-61
2021/07/10 00:29:52;;;;;;;20.20;18.37;;;20.10;99.90;;;;;;4993116;28;20419;-61
2021/07/10 00:32:17;;;;;;;20.07;18.37;;;20.00;99.90;;;;;;4993739;28;20420;-61
2021/07/10 00:34:43;;;;;;;19.83;17.97;;;20.00;99.90;;;;;;5008186;28;20206;-62
2021/07/10 00:37:09;;;;;;;19.73;18.13;;;20.00;99.90;;;;;;4993744;28;20191;-61
2021/07/10 00:39:35;;;;;;;18.67;17.20;;;20.00;99.90;;;;;;4993536;28;20632;-61
2021/07/10 00:42:00;;;;;;;19.67;18.07;;;20.00;99.90;;;;;;4993282;28;20186;-61
2021/07/10 00:44:26;;;;;;;19.50;17.90;;;19.90;99.90;;;;;;4993534;28;20237;-61
2021/07/10 00:46:52;;;;;;;20.40;18.50;;;19.90;99.90;;;;;;4993139;28;20186;-61
2021/07/10 00:49:18;;;;;;;19.43;17.83;;;19.80;99.90;;;;;;4993815;28;20283;-61
2021/07/10 00:51:44;;;;;;;18.90;17.40;;;19.80;99.90;;;;;;4993214;28;20180;-63
2021/07/10 00:54:10;;;;;;;18.87;17.20;;;19.80;99.90;;;;;;4993544;28;20901;-61
2021/07/10 00:56:36;;;;;;;19.20;17.50;;;19.70;99.90;;;;;;4993153;28;20450;-61
2021/07/10 00:59:02;;;;;;;19.53;18.07;;;19.70;99.90;;;;;;4992873;28;20269;-61
2021/07/10 01:01:28;;;;;;;19.80;18.10;;;19.70;99.90;;;;;;4993475;28;20431;-61
2021/07/10 01:03:54;;;;;;;19.97;18.40;;;19.60;99.90;;;;;;4992444;28;20627;-61
2021/07/10 01:06:20;;;;;;;19.70;18.00;;;19.60;99.90;;;;;;4992537;28;20584;-61
2021/07/10 01:08:47;;;;;;;19.67;17.97;;;19.60;99.90;;;;;;4992821;28;20180;-62
2021/07/10 01:11:14;;;;;;;17.97;16.57;;;19.60;99.90;;;;;;4993486;28;20183;-61
2021/07/10 01:13:41;;;;;;;17.80;16.40;;;19.60;99.90;;;;;;4993035;28;20423;-61
2021/07/10 01:16:07;;;;;;;18.67;17.17;;;19.50;99.90;;;;;;4975337;28;20971;-61
2021/07/10 01:18:33;;;;;;;18.13;16.63;;;19.50;99.90;;;;;;4993165;28;20509;-61
2021/07/10 01:20:59;;;;;;;17.50;16.00;;;19.50;99.90;;;;;;4992126;28;20632;-61
2021/07/10 01:23:25;;;;;;;18.03;16.40;;;19.40;99.90;;;;;;4993378;28;20501;-62
2021/07/10 01:25:52;;;;;;;17.27;15.87;;;19.40;99.90;;;;;;4974947;28;20555;-61
2021/07/10 01:28:18;;;;;;;17.60;16.10;;;19.30;99.90;;;;;;4976840;28;20481;-60
2021/07/10 01:30:45;;;;;;;16.90;15.60;;;19.40;99.90;;;;;;4993157;28;20821;-60
2021/07/10 01:33:12;;;;;;;17.00;15.70;;;19.30;99.90;;;;;;4993124;28;20403;-60
2021/07/10 01:35:38;;;;;;;17.90;16.40;;;19.30;99.90;;;;;;4992940;28;20433;-60
2021/07/10 01:38:10;;;;;;;18.07;16.63;;;19.30;99.90;;;;;;4992389;28;20454;-61
2021/07/10 01:40:36;;;;;;;16.87;15.43;;;19.20;99.90;;;;;;4992891;28;20814;-60
2021/07/10 01:43:05;;;;;;;18.33;16.77;;;19.20;99.90;;;;;;4992451;28;20841;-60
2021/07/10 01:45:31;;;;;;;17.50;16.00;;;19.10;99.90;;;;;;4993086;28;20523;-60
2021/07/10 01:47:58;;;;;;;17.70;16.10;;;19.10;99.90;;;;;;4992166;28;20779;-61
2021/07/10 01:50:24;;;;;;;17.40;16.03;;;19.10;99.90;;;;;;4992798;28;20498;-61
2021/07/10 01:52:49;;;;;;;16.20;14.80;;;19.20;99.90;;;;;;4992500;28;20858;-61
2021/07/10 01:55:16;;;;;;;17.37;15.83;;;19.10;99.90;;;;;;4992982;28;20418;-60
2021/07/10 01:57:44;;;;;;;16.73;15.43;;;19.10;99.90;;;;;;5010212;28;20227;-60
2021/07/10 02:00:16;;;;;;;17.23;15.73;;;19.10;99.90;;;;;;5011946;28;20426;-61
2021/07/10 02:02:42;;;;;;;14.93;13.77;;;19.00;99.90;;;;;;4975453;28;20423;-61
2021/07/10 02:05:09;;;;;;;18.80;17.00;;;19.00;99.90;;;;;;4992245;28;20687;-61
2021/07/10 02:07:34;;;;;;;17.07;15.57;;;19.00;99.90;;;;;;4992514;28;20938;-61
2021/07/10 02:10:00;;;;;;;16.27;15.07;;;19.00;99.90;;;;;;4991959;28;20498;-61
2021/07/10 02:12:27;;;;;;;16.33;14.90;;;19.00;99.90;;;;;;4992719;28;20569;-61
2021/07/10 02:14:53;;;;;;;16.53;15.20;;;19.00;99.90;;;;;;4992313;28;20407;-61
2021/07/10 02:17:18;;;;;;;16.17;14.87;;;19.00;99.90;;;;;;4995649;28;20407;-61
2021/07/10 02:19:44;;;;;;;16.70;15.30;;;19.00;99.90;;;;;;4996059;28;20334;-61
2021/07/10 02:22:10;;;;;;;16.10;14.90;;;19.00;99.90;;;;;;5013064;28;20541;-61
2021/07/10 02:24:36;;;;;;;15.53;14.33;;;18.90;99.90;;;;;;5015981;28;20175;-61
2021/07/10 02:27:03;;;;;;;15.53;14.23;;;18.90;99.90;;;;;;5015484;28;20175;-61
2021/07/10 02:29:29;;;;;;;17.37;15.97;;;18.90;99.90;;;;;;5015861;28;20457;-61
2021/07/10 02:31:54;;;;;;;16.87;15.47;;;18.80;99.90;;;;;;5015044;28;20414;-61
2021/07/10 02:34:20;;;;;;;18.23;16.37;;;18.80;99.90;;;;;;5015764;28;20882;-61
2021/07/10 02:36:46;;;;;;;17.67;16.20;;;18.90;99.90;;;;;;5015673;28;20261;-61
2021/07/10 02:39:12;;;;;;;16.77;15.43;;;18.80;99.90;;;;;;5015025;28;20737;-61
2021/07/10 02:41:38;;;;;;;15.10;13.80;;;18.80;99.90;;;;;;4997089;28;20517;-61
2021/07/10 02:44:05;;;;;;;15.97;14.67;;;18.80;99.90;;;;;;4995424;28;20430;-61
2021/07/10 02:46:32;;;;;;;18.77;14.97;;;18.80;99.90;;;;;;4996017;28;20175;-61
2021/07/10 02:48:58;;;;;;;16.60;15.20;;;18.70;99.90;;;;;;4995304;28;20395;-61
2021/07/10 02:51:25;;;;;;;16.80;15.30;;;18.80;99.90;;;;;;5010901;28;20407;-61
2021/07/10 02:53:54;;;;;;;16.67;15.27;;;18.70;99.90;;;;;;4995357;28;20406;-63
2021/07/10 02:56:21;;;;;;;17.30;15.87;;;18.70;99.90;;;;;;4995575;28;20578;-61
2021/07/10 02:58:47;;;;;;;17.03;15.70;;;18.70;99.90;;;;;;4995538;28;20459;-61
2021/07/10 03:01:13;;;;;;;16.83;15.53;;;18.70;99.90;;;;;;4994591;28;20510;-60
2021/07/10 03:03:38;;;;;;;17.70;16.20;;;18.70;99.90;;;;;;4995939;28;20824;-60
2021/07/10 03:06:04;;;;;;;17.13;15.53;;;18.70;99.90;;;;;;4994988;28;20706;-62
2021/07/10 03:08:30;;;;;;;17.27;15.73;;;18.60;99.90;;;;;;4995593;28;20230;-61
2021/07/10 03:10:56;;;;;;;17.50;15.67;;;18.60;99.90;;;;;;4994952;28;20238;-62
2021/07/10 03:13:21;;;;;;;16.90;15.60;;;18.40;99.90;;;;;;4995460;28;20180;-61
2021/07/10 03:15:47;;;;;;;17.80;16.27;;;18.30;99.90;;;;;;4995430;28;20215;-62
2021/07/10 03:18:13;;;;;;;16.70;15.30;;;18.30;99.90;;;;;;4994542;28;20246;-62
2021/07/10 03:20:38;;;;;;;15.70;14.30;;;18.30;99.90;;;;;;4994969;28;20263;-62
2021/07/10 03:23:04;;;;;;;17.97;16.33;;;18.30;99.90;;;;;;4994525;28;20179;-62
2021/07/10 03:25:30;;;;;;;17.00;15.70;;;18.30;99.90;;;;;;4995152;28;20180;-61
2021/07/10 03:27:57;;;;;;;16.80;15.33;;;18.20;99.90;;;;;;4993355;28;20266;-61
2021/07/10 03:30:24;;;;;;;17.10;15.50;;;18.20;99.90;;;;;;4977730;28;20184;-61
2021/07/10 03:32:50;;;;;;;17.03;15.70;;;18.30;99.90;;;;;;4995049;28;20494;-61
2021/07/10 03:35:17;;;;;;;16.20;14.80;;;18.30;99.90;;;;;;4994474;28;20464;-67
2021/07/10 03:37:43;;;;;;;16.40;15.10;;;18.30;99.90;;;;;;4994859;28;20442;-61
2021/07/10 03:40:12;;;;;;;16.10;14.70;;;18.20;99.90;;;;;;4994065;28;20451;-62
2021/07/10 03:42:38;;;;;;;16.20;14.90;;;18.30;99.90;;;;;;4994850;28;20407;-61
2021/07/10 03:45:09;;;;;;;17.13;15.60;;;18.30;99.90;;;;;;4994238;28;20510;-62
2021/07/10 03:47:36;;;;;;;15.93;14.43;;;18.30;99.90;;;;;;4994929;28;20411;-61
2021/07/10 03:50:05;;;;;;;17.23;15.73;;;18.30;99.90;;;;;;4993819;28;20422;-61
2021/07/10 03:52:30;;;;;;;15.67;14.47;;;18.30;99.90;;;;;;4994489;28;20449;-61
2021/07/10 03:54:56;;;;;;;15.30;14.10;;;18.30;99.90;;;;;;4994014;28;20482;-62
2021/07/10 03:57:22;;;;;;;16.73;15.23;;;18.30;99.90;;;;;;4994602;28;20378;-61
2021/07/10 03:59:47;;;;;;;16.63;15.10;;;18.30;99.90;;;;;;4994250;28;20211;-62
2021/07/10 04:02:13;;;;;;;15.73;14.30;;;18.30;99.90;;;;;;4993886;28;20589;-62
2021/07/10 04:04:39;;;;;;;16.27;14.87;;;18.30;99.90;;;;;;4994642;28;20175;-62
2021/07/10 04:07:04;;;;;;;16.77;15.37;;;18.30;99.90;;;;;;4993605;28;20188;-62
2021/07/10 04:09:30;;;;;;;17.80;16.20;;;18.30;99.90;;;;;;4994116;28;20179;-61
2021/07/10 04:11:56;;;;;;;16.73;15.33;;;18.30;99.90;;;;;;4993708;28;20327;-64
2021/07/10 04:14:22;;;;;;;17.30;15.83;;;18.30;99.90;;;;;;4994409;28;20179;-62
2021/07/10 04:16:48;;;;;;;15.70;14.20;;;18.30;99.90;;;;;;4994429;28;20210;-62
2021/07/10 04:19:14;;;;;;;16.63;15.33;;;18.30;99.90;;;;;;4993541;28;20879;-62
2021/07/10 04:21:39;;;;;;;16.80;15.40;;;18.30;99.90;;;;;;4994171;28;20451;-62
2021/07/10 04:24:05;;;;;;;16.97;15.57;;;18.30;99.90;;;;;;4993503;28;20211;-62
2021/07/10 04:26:31;;;;;;;17.60;16.10;;;18.40;99.90;;;;;;4993655;28;20179;-61
2021/07/10 04:28:57;;;;;;;17.10;15.70;;;18.30;99.90;;;;;;4993487;28;20243;-64
2021/07/10 04:31:22;;;;;;;16.60;15.20;;;18.40;99.90;;;;;;4994089;28;20172;-61
2021/07/10 04:33:48;;;;;;;17.30;15.87;;;18.40;99.90;;;;;;4993993;28;20175;-61
2021/07/10 04:36:14;;;;;;;18.30;16.80;;;18.40;99.90;;;;;;4993324;28;20171;-62
2021/07/10 04:38:39;;;;;;;16.37;14.97;;;18.40;99.90;;;;;;4993649;28;20615;-62
2021/07/10 04:41:06;;;;;;;16.97;15.53;;;18.40;99.90;;;;;;4992974;28;20183;-62
2021/07/10 04:43:33;;;;;;;17.30;15.73;;;18.40;99.90;;;;;;4993795;28;20623;-62
2021/07/10 04:45:59;;;;;;;15.97;14.40;;;18.40;99.90;;;;;;4992679;28;20465;-62
2021/07/10 04:48:25;;;;;;;16.60;14.93;;;18.50;99.90;;;;;;4993662;28;20431;-61
2021/07/10 04:50:51;;;;;;;16.90;15.50;;;18.50;99.90;;;;;;4993883;28;20418;-61
2021/07/10 04:53:17;;;;;;;16.50;15.10;;;18.50;99.90;;;;;;4992975;28;20419;-61
2021/07/10 04:55:42;;;;;;;17.60;16.00;;;18.60;99.90;;;;;;4993404;28;20175;-61
2021/07/10 04:58:08;;;;;;;17.23;15.70;;;18.60;99.90;;;;;;4992938;28;20273;-61
2021/07/10 05:00:34;;;;;;;16.73;15.23;;;18.60;99.90;;;;;;4993853;28;20203;-62
2021/07/10 05:03:00;;;;;;;17.13;15.63;;;18.60;99.90;;;;;;4992855;28;20781;-62
2021/07/10 05:05:26;;;;;;;17.10;15.53;;;18.60;99.90;;;;;;4993649;28;20418;-60
2021/07/10 05:07:51;;;;;;;17.57;16.03;;;18.70;99.90;;;;;;4992827;28;20219;-60
2021/07/10 05:10:18;;;;;;;18.30;16.80;;;18.70;99.90;;;;;;4993039;28;20180;-60
2021/07/10 05:12:44;;;;;;;18.13;16.70;;;18.70;99.90;;;;;;4993350;28;20677;-64
2021/07/10 05:15:10;;;;;;;18.57;17.07;;;18.70;99.90;;;;;;4992702;28;20411;-64
2021/07/10 05:17:36;;;;;;;19.23;17.63;;;18.80;99.90;;;;;;4993239;28;20258;-64
2021/07/10 05:20:02;;;;;;;18.30;16.80;;;18.80;99.90;;;;;;4974877;28;20502;-64
2021/07/10 05:22:28;;;;;;;18.10;16.47;;;18.80;99.90;;;;;;4993047;28;20176;-64
2021/07/10 05:24:54;;;;;;;18.13;16.53;;;18.80;99.90;;;;;;4993249;28;20535;-64
2021/07/10 05:27:20;;;;;;;18.10;16.60;;;18.90;99.90;;;;;;4992544;28;20477;-64
2021/07/10 05:29:45;;;;;;;18.27;16.77;;;18.90;99.90;;;;;;4992982;28;20183;-63
2021/07/10 05:32:13;;;;;;;19.47;17.87;;;18.90;99.90;;;;;;4992659;28;20176;-64
2021/07/10 05:34:39;;;;;;;18.73;17.10;;;19.00;99.90;;;;;;4975871;28;20180;-64
2021/07/10 05:37:06;;;;;;;20.73;18.70;;;19.10;99.90;;;;;;4975184;28;20414;-64
2021/07/10 05:39:31;;;;;;;18.27;16.67;;;19.10;99.90;;;;;;4992804;28;20243;-64
2021/07/10 05:41:57;;;;;;;19.87;18.27;;;19.10;99.90;;;;;;4993168;28;20447;-64
2021/07/10 05:44:23;;;;;;;20.00;17.90;;;19.20;99.90;;;;;;4992471;28;20671;-64
2021/07/10 05:46:48;;;;;;;18.47;16.97;;;19.20;99.90;;;;;;4992946;28;20266;-64
2021/07/10 05:49:14;;;;;;;19.53;18.03;;;19.20;99.90;;;;;;4992468;28;20180;-64
2021/07/10 05:51:40;;;;;;;20.23;18.50;;;19.30;99.90;;;;;;4994039;28;20187;-64
2021/07/10 05:54:06;;;;;;;20.27;18.40;;;19.30;99.90;;;;;;4994260;28;20434;-64
2021/07/10 05:56:32;;;;;;;15.83;14.57;;;19.40;99.90;;;;;;4996695;28;20570;-62
2021/07/10 05:58:57;;;;;;;14.20;13.00;;;19.40;99.90;;;;;;4995664;28;20281;-62
2021/07/10 06:01:23;;;;;;;20.23;18.27;;;19.50;99.90;;;;;;4994985;28;20667;-62
2021/07/10 06:03:48;;;;;;;18.77;17.17;;;19.60;99.90;;;;;;4996039;28;20624;-61
2021/07/10 06:06:15;;;;;;;13.33;11.97;;;19.70;99.90;;;;;;4995962;28;20258;-61
2021/07/10 06:08:40;;;;;;;13.87;12.47;;;19.90;99.90;;;;;;4996427;28;20198;-61
2021/07/10 06:11:06;;;;;;;14.50;11.97;;;20.30;99.90;;;;;;4996034;28;20419;-62
2021/07/10 06:13:31;;;;;;;16.27;14.87;;;20.60;99.90;;;;;;4996606;28;20661;-62
2021/07/10 06:15:57;;;;;;;17.80;16.30;;;20.90;99.90;;;;;;4996564;28;20184;-64
2021/07/10 06:18:23;;;;;;;18.60;17.10;;;21.10;99.90;;;;;;4995569;28;20207;-64
2021/07/10 06:20:49;;;;;;;19.07;17.47;;;21.10;99.90;;;;;;4996258;28;20190;-65
2021/07/10 06:23:17;;;;;;;17.73;15.90;;;21.00;99.90;;;;;;4995109;28;20624;-66
2021/07/10 06:25:43;;;;;;;19.90;18.17;;;21.00;99.90;;;;;;4996002;28;20255;-66
2021/07/10 06:28:08;;;;;;;18.47;16.87;;;21.00;99.90;;;;;;4995654;28;20841;-66
2021/07/10 06:30:34;;;;;;;18.57;17.00;;;21.10;99.90;;;;;;4996206;28;20180;-66
2021/07/10 06:33:00;;;;;;;18.60;17.00;;;21.10;99.90;;;;;;4996234;28;20203;-66
2021/07/10 06:35:26;;;;;;;18.80;17.20;;;21.10;99.90;;;;;;4995489;28;20176;-66
2021/07/10 06:37:52;;;;;;;19.10;17.20;;;21.10;99.90;;;;;;4995466;28;20430;-66
2021/07/10 06:40:19;;;;;;;18.93;17.30;;;21.20;99.90;;;;;;4995408;28;20183;-64
2021/07/10 06:42:46;;;;;;;18.70;17.20;;;21.20;99.90;;;;;;4995964;28;20694;-64
2021/07/10 06:45:15;;;;;;;17.60;16.10;;;21.30;99.90;;;;;;4995303;28;20410;-64
2021/07/10 06:47:41;;;;;;;18.87;17.17;;;21.40;99.90;;;;;;4995815;28;20498;-64
2021/07/10 06:50:08;;;;;;;17.20;15.70;;;21.50;99.90;;;;;;4994308;28;20502;-65
2021/07/10 06:52:34;;;;;;;16.83;15.20;;;21.70;99.90;;;;;;4995432;28;20531;-64
2021/07/10 06:55:00;;;;;;;19.10;17.37;;;21.70;99.90;;;;;;4995702;28;20419;-64
2021/07/10 06:57:26;;;;;;;18.40;16.90;;;21.80;99.90;;;;;;4995118;28;20459;-64
2021/07/10 06:59:52;;;;;;;18.60;17.10;;;21.90;99.90;;;;;;4995825;28;20222;-64
2021/07/10 07:02:17;;;;;;;18.87;17.10;;;22.00;99.90;;;;;;4995034;28;20647;-64
2021/07/10 07:04:43;;;;;;;17.33;15.90;;;22.10;99.90;;;;;;4995412;28;20274;-65
2021/07/10 07:07:09;;;;;;;17.83;16.23;;;22.10;99.90;;;;;;4993057;28;20179;-65
2021/07/10 07:09:34;;;;;;;18.27;16.77;;;22.20;99.90;;;;;;4994935;28;20179;-64
2021/07/10 07:12:00;;;;;;;17.70;16.07;;;22.20;99.90;;;;;;4995055;28;20632;-64
2021/07/10 07:14:26;;;;;;;17.47;15.77;;;22.30;99.90;;;;;;4994104;28;20180;-64
2021/07/10 07:16:52;;;;;;;16.30;15.00;;;22.40;99.90;;;;;;4993842;28;20183;-64
2021/07/10 07:19:18;;;;;;;16.67;15.30;;;22.40;99.90;;;;;;4994380;28;20459;-64
2021/07/10 07:21:43;;;;;;;17.50;16.00;;;22.50;99.90;;;;;;4994505;28;20664;-64
2021/07/10 07:24:09;;;;;;;16.93;15.53;;;22.50;99.90;;;;;;4994472;28;20176;-64
2021/07/10 07:26:36;;;;;;;17.53;15.87;;;22.60;99.90;;;;;;4995319;28;20638;-64
2021/07/10 07:29:02;;;;;;;16.13;14.73;;;22.60;99.90;;;;;;4995146;28;20187;-63
2021/07/10 07:31:28;;;;;;;17.50;16.00;;;22.60;99.90;;;;;;4993430;28;20419;-64
2021/07/10 07:33:54;;;;;;;17.40;16.07;;;22.70;99.90;;;;;;4995204;28;20961;-63
2021/07/10 07:36:19;;;;;;;22.37;14.00;;;22.70;99.90;;;;;;4994042;28;20683;-63
2021/07/10 07:38:45;;;;;;;20.37;18.43;;;22.80;99.90;;;;;;4994810;28;20261;-71
2021/07/10 07:41:11;;;;;;;20.10;18.40;;;22.80;99.90;;;;;;4994363;28;20190;-62
2021/07/10 07:43:37;;;;;;;22.37;20.40;;;22.90;99.90;;;;;;4994668;28;20179;-63
2021/07/10 07:46:02;;;;;;;20.93;19.17;;;22.90;99.90;;;;;;4994068;28;20616;-63
2021/07/10 07:48:28;;;;;;;19.13;14.30;;;22.90;99.90;;;;;;4993800;28;20183;-67
2021/07/10 07:50:54;;;;;;;23.60;21.30;;;23.00;99.90;;;;;;4994695;28;20176;-66
2021/07/10 07:53:20;;;;;;;21.27;19.17;;;23.00;99.90;;;;;;4993713;28;20240;-66
2021/07/10 07:55:46;;;;;;;20.97;19.17;;;23.00;99.90;;;;;;4994259;28;20168;-66
2021/07/10 07:58:12;;;;;;;20.23;18.40;;;23.10;99.90;;;;;;4994029;28;20199;-66
2021/07/10 08:00:38;;;;;;;19.17;17.47;;;23.10;99.90;;;;;;4994444;28;20427;-66
2021/07/10 08:03:04;;;;;;;16.80;15.40;;;23.10;99.90;;;;;;4994318;28;20423;-66
2021/07/10 08:05:30;;;;;;;16.93;15.53;;;23.20;99.90;;;;;;4993833;28;20924;-66
2021/07/10 08:07:56;;;;;;;15.77;14.37;;;23.20;99.70;;;;;;4994510;28;20632;-66
2021/07/10 08:10:23;;;;;;;13.90;12.80;;;23.20;99.40;;;;;;4993841;28;20175;-66
2021/07/10 08:12:51;;;;;;;14.70;13.30;;;23.30;99.30;;;;;;4993920;28;20446;-66
2021/07/10 08:15:19;;;;;;;12.80;11.73;;;23.30;99.50;;;;;;4993103;28;20966;-66
2021/07/10 08:17:47;;;;;;;14.73;13.10;;;23.40;98.60;;;;;;4992063;28;20427;-67
2021/07/10 08:20:13;;;;;;;13.70;12.40;;;23.50;98.40;;;;;;4975597;28;20426;-66
2021/07/10 08:22:39;;;;;;;13.53;12.43;;;23.50;99.10;;;;;;4993975;28;20426;-66
2021/07/10 08:25:07;;;;;;;13.47;12.47;;;23.50;98.50;;;;;;4994082;28;20759;-66
2021/07/10 08:27:33;;;;;;;12.77;11.70;;;23.60;98.00;;;;;;4990497;28;20180;-66
2021/07/10 08:29:59;;;;;;;14.40;13.20;;;23.60;97.80;;;;;;4993536;28;20458;-66
2021/07/10 08:32:24;;;;;;;13.60;12.40;;;23.70;97.70;;;;;;4993009;28;20461;-65
2021/07/10 08:34:50;;;;;;;13.53;12.40;;;23.70;97.30;;;;;;4993951;28;20473;-67
2021/07/10 08:37:17;;;;;;;13.20;12.10;;;23.80;97.90;;;;;;4975556;28;20188;-66
2021/07/10 08:39:43;;;;;;;12.77;11.70;;;23.90;97.30;;;;;;4974395;28;20216;-68
2021/07/10 08:42:09;;;;;;;12.83;11.83;;;23.90;96.90;;;;;;4974409;28;20450;-68
2021/07/10 08:44:40;;;;;;;12.80;11.60;;;23.90;96.40;;;;;;4973705;28;20177;-67
2021/07/10 08:47:11;;;;;;;11.40;10.43;;;24.00;96.60;;;;;;4990053;28;20505;-68
2021/07/10 08:49:38;;;;;;;11.87;10.77;;;23.90;95.20;;;;;;4993465;28;20399;-68
2021/07/10 08:52:05;;;;;;;10.17;9.37;;;23.90;94.60;;;;;;4993650;28;20427;-67
2021/07/10 08:54:32;;;;;;;11.67;10.77;;;23.80;94.40;;;;;;4975648;28;20748;-68
2021/07/10 08:56:58;;;;;;;11.53;10.67;;;23.70;94.60;;;;;;4984425;28;20475;-68
2021/07/10 08:59:24;;;;;;;15.40;11.67;;;23.70;96.20;;;;;;4992873;28;20474;-66
2021/07/10 09:01:53;;;;;;;11.23;10.33;;;23.60;96.30;;;;;;4993406;28;20506;-67
2021/07/10 09:04:23;;;;;;;10.40;9.60;;;23.50;96.30;;;;;;4992507;28;20408;-68
2021/07/10 09:06:50;;;;;;;11.20;10.30;;;23.50;96.70;;;;;;4993324;28;20949;-68
2021/07/10 09:09:16;;;;;;;10.80;10.00;;;23.40;96.60;;;;;;4991690;28;20411;-68
2021/07/10 09:11:41;;;;;;;11.80;10.60;;;23.30;96.80;;;;;;4993096;28;20907;-67
2021/07/10 09:14:07;;;;;;;10.70;9.90;;;23.30;97.00;;;;;;4993368;28;20184;-67
2021/07/10 09:16:35;;;;;;;10.80;9.90;;;23.30;97.00;;;;;;4992751;28;20190;-67
2021/07/10 09:19:09;;;;;;;11.37;10.47;;;23.20;96.30;;;;;;4992911;28;20286;-68
2021/07/10 09:21:48;;;;;;;10.90;10.00;;;23.20;97.00;;;;;;4992740;28;20451;-68
2021/07/10 09:24:31;;;;;;;11.17;10.27;;;23.20;97.60;;;;;;4992740;28;20862;-67
2021/07/10 09:27:00;;;;;;;11.93;10.80;;;23.20;97.50;;;;;;4992290;28;20430;-67
2021/07/10 09:29:35;;;;;;;9.90;9.10;;;23.10;96.80;;;;;;4992590;28;20421;-67
2021/07/10 09:32:13;;;;;;;12.13;11.13;;;23.10;97.40;;;;;;4993530;28;20394;-68
2021/07/10 09:34:45;;;;;;;10.03;9.10;;;23.10;97.60;;;;;;4992583;28;20418;-68
2021/07/10 09:37:17;;;;;;;11.10;10.10;;;23.10;96.70;;;;;;4993117;28;20406;-67
2021/07/10 09:39:54;;;;;;;10.83;9.93;;;23.10;97.10;;;;;;4982455;28;20534;-67
2021/07/10 09:42:44;;;;;;;11.80;10.80;;;23.10;96.60;;;;;;4973143;28;20415;-67
2021/07/10 09:45:18;;;;;;;10.60;9.80;;;23.10;96.70;;;;;;4977969;28;20514;-69
2021/07/10 09:47:45;;;;;;;12.40;11.10;;;23.20;96.10;;;;;;4993117;28;20421;-67
2021/07/10 09:50:24;;;;;;;11.60;10.70;;;23.20;96.30;;;;;;4992881;28;20423;-67
2021/07/10 09:52:50;;;;;;;11.93;10.83;;;23.30;97.40;;;;;;4992859;28;20414;-67
2021/07/10 09:55:17;;;;;;;10.90;10.00;;;23.50;97.00;;;;;;4992331;28;20961;-68
2021/07/10 09:57:45;;;;;;;11.17;10.20;;;23.50;96.60;;;;;;4992235;28;20462;-66
2021/07/10 10:00:12;;;;;;;11.43;10.63;;;23.60;95.80;;;;;;4992349;28;20524;-68
2021/07/10 10:02:46;;;;;;;10.57;9.63;;;23.80;96.30;;;;;;4992097;28;20435;-67
2021/07/10 10:05:14;;;;;;;11.10;10.30;;;23.90;96.20;;;;;;4975693;28;20403;-67
2021/07/10 10:07:51;;;;;;;10.90;10.10;;;23.90;94.90;;;;;;4992185;28;20417;-68
2021/07/10 10:10:23;;;;;;;10.70;9.90;;;24.00;95.00;;;;;;4991927;28;20468;-67
2021/07/10 10:13:13;;;;;;;11.67;10.83;;;24.10;96.10;;;;;;4992604;28;20932;-67
2021/07/10 10:15:40;;;;;;;10.90;10.10;;;24.20;96.30;;;;;;4976838;28;20435;-67
2021/07/10 10:18:07;;;;;;;10.97;10.13;;;24.30;96.50;;;;;;4991796;28;20482;-67
2021/07/10 10:20:35;;;;;;;11.40;10.60;;;24.30;94.80;;;;;;4991150;28;20407;-67
2021/07/10 10:23:02;;;;;;;10.03;9.23;;;24.40;95.20;;;;;;4974172;28;20820;-67
2021/07/10 10:25:28;;;;;;;9.87;9.10;;;24.50;94.20;;;;;;4972548;28;20415;-67
2021/07/10 10:27:55;;;;;;;12.07;11.07;;;24.50;95.10;;;;;;4973327;28;20419;-71
2021/07/10 10:30:22;;;;;;;12.23;11.13;;;24.60;96.00;;;;;;4977567;28;20422;-67
2021/07/10 10:32:49;;;;;;;10.07;9.33;;;24.60;96.90;;;;;;4991941;28;20435;-66
2021/07/10 10:35:16;;;;;;;10.90;10.10;;;24.60;96.00;;;;;;4990863;28;20411;-66
2021/07/10 10:37:43;;;;;;;11.10;10.20;;;24.70;95.50;;;;;;4994532;28;20410;-67
2021/07/10 10:40:17;;;;;;;11.20;10.40;;;24.70;94.80;;;;;;4995780;28;20593;-67
2021/07/10 10:42:44;;;;;;;10.43;9.70;;;24.70;94.90;;;;;;4996020;28;20402;-70
2021/07/10 10:45:11;;;;;;;11.10;10.23;;;24.70;94.40;;;;;;4987120;28;20433;-67
2021/07/10 10:47:45;;;;;;;10.37;9.57;;;24.70;94.10;;;;;;4995263;28;20490;-67
2021/07/10 10:50:26;;;;;;;10.97;10.17;;;24.70;94.00;;;;;;4988155;28;20506;-66
2021/07/10 10:52:54;;;;;;;11.20;10.17;;;24.70;94.90;;;;;;4976296;28;20880;-66
2021/07/10 10:55:29;;;;;;;11.13;10.27;;;24.60;94.40;;;;;;4975695;28;20412;-68
2021/07/10 10:58:14;;;;;;;11.33;10.50;;;24.50;94.70;;;;;;4976501;28;20467;-67
2021/07/10 11:00:41;;;;;;;10.40;9.70;;;24.50;94.70;;;;;;4992775;28;20514;-67
2021/07/10 11:03:08;;;;;;;10.40;9.70;;;24.50;95.70;;;;;;4995310;28;20430;-68
2021/07/10 11:05:34;;;;;;;11.07;10.17;;;24.40;96.00;;;;;;4994355;28;20427;-67
2021/07/10 11:08:18;;;;;;;9.97;9.20;;;24.40;95.20;;;;;;4995346;28;20787;-68
2021/07/10 11:11:05;;;;;;;9.87;9.07;;;24.40;94.50;;;;;;4995539;28;20190;-67
2021/07/10 11:13:35;;;;;;;8.97;8.27;;;24.40;93.30;;;;;;4994342;28;20422;-67
2021/07/10 11:16:19;;;;;;;78.13;71.33;;;24.40;94.30;;;;;;4995164;28;20419;-67
2021/07/10 11:18:55;;;;;;;27.73;25.03;;;24.40;93.90;;;;;;4994865;28;20939;-68
2021/07/10 11:21:41;;;;;;;22.47;20.20;;;24.40;94.20;;;;;;4994469;28;20422;-67
2021/07/10 11:24:25;;;;;;;13.13;11.93;;;24.40;96.10;;;;;;4995190;28;20411;-66
2021/07/10 11:26:56;;;;;;;9.77;9.07;;;24.40;95.90;;;;;;4994947;28;20434;-64
2021/07/10 11:29:28;;;;;;;9.70;8.80;;;24.40;93.50;;;;;;4994725;28;20473;-65
2021/07/10 11:32:15;;;;;;;9.40;8.67;;;24.50;93.80;;;;;;4985790;28;20527;-64
2021/07/10 11:34:47;;;;;;;10.37;9.50;;;24.50;93.90;;;;;;4993138;28;20921;-64
2021/07/10 11:37:31;;;;;;;10.40;9.60;;;24.60;95.00;;;;;;4993891;28;20427;-64
2021/07/10 11:39:57;;;;;;;9.23;8.53;;;24.60;93.60;;;;;;4994650;28;20458;-64
2021/07/10 11:42:25;;;;;;;9.30;8.60;;;24.70;94.30;;;;;;4977227;28;20432;-65
2021/07/10 11:45:11;;;;;;;9.90;9.20;;;24.80;93.30;;;;;;4985062;28;20504;-64
2021/07/10 11:47:50;;;;;;;8.50;7.90;;;24.80;93.20;;;;;;4981631;28;20423;-65
2021/07/10 11:50:23;;;;;;;9.13;8.40;;;24.90;93.00;;;;;;4993491;28;20518;-65
2021/07/10 11:53:08;;;;;;;8.97;8.37;;;25.00;93.20;;;;;;4993098;28;20498;-71
2021/07/10 11:55:39;;;;;;;10.50;9.80;;;25.00;93.40;;;;;;4992836;28;20477;-70
2021/07/10 11:58:11;;;;;;;11.00;10.00;;;25.10;92.40;;;;;;4994304;28;20427;-74
2021/07/10 12:00:36;;;;;;;9.23;8.43;;;25.20;93.80;;;;;;4994358;28;20478;-71
2021/07/10 12:03:23;;;;;;;8.70;8.00;;;25.30;93.30;;;;;;4994340;28;20419;-71
2021/07/10 12:05:50;;;;;;;8.57;7.87;;;25.30;91.50;;;;;;4993962;28;20419;-69
2021/07/10 12:08:18;;;;;;;8.77;8.10;;;25.50;91.10;;;;;;4994137;28;20427;-76
2021/07/10 12:10:46;;;;;;;7.53;6.90;;;25.50;92.50;;;;;;4993587;28;20426;-73
2021/07/10 12:13:14;;;;;;;8.10;7.50;;;25.60;91.10;;;;;;4993841;28;20911;-71
2021/07/10 12:15:42;;;;;;;7.50;7.00;;;25.60;90.70;;;;;;4993148;28;20427;-72
2021/07/10 12:18:11;;;;;;;7.83;7.27;;;25.60;90.20;;;;;;4993651;28;20521;-70
2021/07/10 12:20:50;;;;;;;9.50;8.63;;;25.60;90.40;;;;;;4993470;28;20437;-74
2021/07/10 12:23:23;;;;;;;9.07;7.77;;;25.60;90.30;;;;;;4994044;28;20447;-70
2021/07/10 12:26:12;;;;;;;8.73;8.13;;;25.60;90.30;;;;;;4993394;28;20435;-70
2021/07/10 12:28:40;;;;;;;7.87;7.27;;;25.60;91.20;;;;;;4992910;28;20399;-70
2021/07/10 12:31:13;;;;;;;7.60;7.10;;;25.80;90.90;;;;;;4993799;28;20890;-70